CheckWX is a tool to help pilots better visualize weather data.  It is not intended as a substitute for an official pre-flight weather briefing.

08:56:40 UTC

SKBQ METAR
Ernesto Cortissoz International Airport
Barranquilla, Colombia
Current

57 mins ago

SKBQ 190800Z 36004KT 310V030 9999 FEW015 SCT200 27/25 A2980 NOSIG
Observed
May-19 @ 08:00 UTC
Wind
  • 360° at 4 KTS
Visibility
10,000+ meters
Flight Rules
VFR
Cloud Levels
  • Few at 1,500' AGL
  • Scattered at 20,000' AGL
Temperature
27°C / 81°F
Dewpoint
25°C / 77°F
Heat Index
31°C / 88°F
Humidity
89%
Altimeter
29.8" Hg
Pressure
1009.12 hPa
Previous

2 hours ago

SKBQ 190700Z 36004KT 290V020 9999 FEW015 SCT200 27/25 A2981 NOSIG
Observed
May-19 @ 07:00 UTC
Wind
  • 360° at 4 KTS
Visibility
10,000+ meters
Flight Rules
VFR
Cloud Levels
  • Few at 1,500' AGL
  • Scattered at 20,000' AGL
Temperature
27°C / 81°F
Dewpoint
25°C / 77°F
Heat Index
31°C / 88°F
Humidity
89%
Altimeter
29.81" Hg
Pressure
1009.52 hPa
Previous

3 hours ago

SKBQ 190600Z 01005KT 300V030 9999 FEW015 SCT200 27/25 A2981 NOSIG
Observed
May-19 @ 06:00 UTC
Wind
  • 010° at 5 KTS
Visibility
10,000+ meters
Flight Rules
VFR
Cloud Levels
  • Few at 1,500' AGL
  • Scattered at 20,000' AGL
Temperature
27°C / 81°F
Dewpoint
25°C / 77°F
Heat Index
31°C / 88°F
Humidity
89%
Altimeter
29.81" Hg
Pressure
1009.52 hPa